createdAt,value
2018-02-02T00:01:40.654Z,6.07
2018-02-02T00:04:08.141Z,6.10
2018-02-02T00:06:35.635Z,6.40
2018-02-02T00:09:03.099Z,5.40
2018-02-02T00:11:31.266Z,6.50
2018-02-02T00:13:58.765Z,5.40
2018-02-02T00:16:26.223Z,5.77
2018-02-02T00:18:54.509Z,6.57
2018-02-02T00:21:22.001Z,6.00
2018-02-02T00:23:50.481Z,5.80
2018-02-02T00:26:18.000Z,7.20
2018-02-02T00:28:45.458Z,5.53
2018-02-02T00:31:12.988Z,4.97
2018-02-02T00:33:40.514Z,6.10
2018-02-02T00:36:08.754Z,6.10
2018-02-02T00:38:36.241Z,5.17
2018-02-02T00:41:04.468Z,4.47
2018-02-02T00:43:31.959Z,6.20
2018-02-02T00:45:59.439Z,4.77
2018-02-02T00:48:26.914Z,5.67
2018-02-02T00:51:00.171Z,4.90
2018-02-02T00:53:28.456Z,4.93
2018-02-02T00:55:56.710Z,4.73
2018-02-02T00:58:24.203Z,4.30
2018-02-02T01:00:51.670Z,5.50
2018-02-02T01:03:19.161Z,4.67
2018-02-02T01:05:47.411Z,3.87
2018-02-02T01:08:14.911Z,4.60
2018-02-02T01:10:42.382Z,5.03
2018-02-02T01:13:10.628Z,4.43
2018-02-02T01:15:38.120Z,4.93
2018-02-02T01:18:06.366Z,5.23
2018-02-02T01:20:33.884Z,5.43
2018-02-02T01:23:01.350Z,4.33
2018-02-02T01:25:28.839Z,5.17
2018-02-02T01:27:56.335Z,5.70
2018-02-02T01:30:24.604Z,5.17
2018-02-02T01:32:52.128Z,4.57
2018-02-02T01:35:19.643Z,5.10
2018-02-02T01:37:47.882Z,4.50
2018-02-02T01:40:15.394Z,5.37
2018-02-02T01:42:42.858Z,4.57
2018-02-02T01:45:10.347Z,4.30
2018-02-02T01:47:37.816Z,5.13
2018-02-02T01:50:05.282Z,4.80
2018-02-02T01:52:32.779Z,4.63
2018-02-02T01:55:00.263Z,4.10
2018-02-02T01:57:27.734Z,4.60
2018-02-02T01:59:55.210Z,4.80
2018-02-02T02:02:23.456Z,5.30
2018-02-02T02:04:50.968Z,4.43
2018-02-02T02:07:18.425Z,4.50
2018-02-02T02:09:45.906Z,4.43
2018-02-02T02:12:13.382Z,4.87
2018-02-02T02:14:41.338Z,5.10
2018-02-02T02:17:09.089Z,4.60
2018-02-02T02:19:37.169Z,4.67
2018-02-02T02:22:04.637Z,5.53
2018-02-02T02:24:32.323Z,5.10
2018-02-02T02:26:59.800Z,5.50
2018-02-02T02:29:27.290Z,5.13
2018-02-02T02:31:54.770Z,4.60
2018-02-02T02:34:22.223Z,4.97
2018-02-02T02:36:49.713Z,4.30
2018-02-02T02:39:17.179Z,5.07
2018-02-02T02:41:45.455Z,5.67
2018-02-02T02:44:13.702Z,5.97
2018-02-02T02:46:41.194Z,5.10
2018-02-02T02:49:09.449Z,4.80
2018-02-02T02:51:36.931Z,4.70
2018-02-02T02:54:04.404Z,4.63
2018-02-02T02:56:31.904Z,4.83
2018-02-02T02:58:59.391Z,5.17
2018-02-02T03:01:28.054Z,4.83
2018-02-02T03:03:55.668Z,4.57
2018-02-02T03:06:23.249Z,4.93
2018-02-02T03:08:51.497Z,4.40
2018-02-02T03:11:19.038Z,5.30
2018-02-02T03:13:47.304Z,4.90
2018-02-02T03:16:14.801Z,5.10
2018-02-02T03:18:42.308Z,4.77
2018-02-02T03:21:09.779Z,5.50
2018-02-02T03:23:38.053Z,6.27
2018-02-02T03:26:06.348Z,5.20
2018-02-02T03:28:33.841Z,7.23
2018-02-02T03:31:02.178Z,5.47
2018-02-02T03:33:29.678Z,5.93
2018-02-02T03:35:57.153Z,5.10
2018-02-02T03:38:24.662Z,6.30
2018-02-02T03:40:52.120Z,6.37
2018-02-02T03:43:19.638Z,6.70
2018-02-02T03:45:47.151Z,6.10
2018-02-02T03:48:14.636Z,5.90
2018-02-02T03:50:42.126Z,5.20
2018-02-02T03:53:10.381Z,6.20
2018-02-02T03:55:38.286Z,5.20
2018-02-02T03:58:06.553Z,6.50
2018-02-02T04:00:34.785Z,6.60
2018-02-02T04:03:02.283Z,6.07
2018-02-02T04:05:30.522Z,6.50
2018-02-02T04:07:58.004Z,6.00
2018-02-02T04:10:26.323Z,7.30
2018-02-02T04:12:53.820Z,5.80
2018-02-02T04:15:21.319Z,6.60
2018-02-02T04:17:49.578Z,5.50
2018-02-02T04:20:17.816Z,6.03
2018-02-02T04:22:45.281Z,5.83
2018-02-02T04:25:13.478Z,5.50
2018-02-02T04:27:40.933Z,6.33
2018-02-02T04:30:08.418Z,6.40
2018-02-02T04:32:35.912Z,5.40
2018-02-02T04:35:07.927Z,5.50
2018-02-02T04:37:36.179Z,6.37
2018-02-02T04:40:03.713Z,4.87
2018-02-02T04:42:31.174Z,5.50
2018-02-02T04:44:58.659Z,5.53
2018-02-02T04:47:26.195Z,6.10
2018-02-02T04:49:54.715Z,5.27
2018-02-02T04:52:23.012Z,5.07
2018-02-02T04:54:50.542Z,5.30
2018-02-02T04:57:18.835Z,5.00
2018-02-02T04:59:46.359Z,4.87
2018-02-02T05:02:13.843Z,5.10
2018-02-02T05:04:42.094Z,4.70
2018-02-02T05:07:09.612Z,4.10
2018-02-02T05:09:37.129Z,5.50
2018-02-02T05:12:04.638Z,4.27
2018-02-02T05:14:32.151Z,5.17
2018-02-02T05:17:00.774Z,4.50
2018-02-02T05:19:28.251Z,5.60
2018-02-02T05:21:55.751Z,4.60
2018-02-02T05:24:24.234Z,5.00
2018-02-02T05:26:52.478Z,4.67
2018-02-02T05:29:19.928Z,5.03
2018-02-02T05:31:47.416Z,4.50
2018-02-02T05:34:15.671Z,4.90
2018-02-02T05:36:43.188Z,5.33
2018-02-02T05:39:10.650Z,5.77
2018-02-02T05:41:38.127Z,6.93
2018-02-02T05:44:05.609Z,5.40
2018-02-02T05:46:33.689Z,5.17
2018-02-02T05:49:01.167Z,5.70
2018-02-02T05:51:28.664Z,5.10
2018-02-02T05:53:56.151Z,5.07
2018-02-02T05:56:23.635Z,5.47
2018-02-02T05:58:51.876Z,5.70
2018-02-02T06:01:19.348Z,5.60
2018-02-02T06:03:47.598Z,7.03
2018-02-02T06:06:15.074Z,5.50
2018-02-02T06:08:42.535Z,7.27
2018-02-02T06:11:10.295Z,5.90
2018-02-02T06:13:37.762Z,6.43
2018-02-02T06:16:05.994Z,6.10
2018-02-02T06:18:33.765Z,5.40
2018-02-02T06:21:01.263Z,6.90
2018-02-02T06:23:28.719Z,6.20
2018-02-02T06:25:56.970Z,6.17
2018-02-02T06:28:24.471Z,6.40
2018-02-02T06:30:51.937Z,6.27
2018-02-02T06:33:19.432Z,6.93
2018-02-02T06:35:46.908Z,5.60
2018-02-02T06:38:14.402Z,6.13
2018-02-02T06:40:41.912Z,6.20
2018-02-02T06:43:09.392Z,5.63
2018-02-02T06:45:36.880Z,5.80
2018-02-02T06:48:04.365Z,5.60
2018-02-02T06:50:31.827Z,5.00
2018-02-02T06:52:59.303Z,5.53
2018-02-02T06:55:26.775Z,5.93
2018-02-02T06:57:54.306Z,5.90
2018-02-02T07:00:21.797Z,4.90
2018-02-02T07:02:49.282Z,5.20
2018-02-02T07:05:16.736Z,5.10
2018-02-02T07:07:44.197Z,6.03
2018-02-02T07:10:12.047Z,6.43
2018-02-02T07:12:39.514Z,5.23
2018-02-02T07:15:06.990Z,6.40
2018-02-02T07:17:34.499Z,3.80
2018-02-02T07:20:01.997Z,4.87
2018-02-02T07:22:29.500Z,5.30
2018-02-02T07:24:56.992Z,5.23
2018-02-02T07:27:24.483Z,5.30
2018-02-02T07:29:51.946Z,4.50
2018-02-02T07:32:19.739Z,5.70
2018-02-02T07:34:47.231Z,5.80
2018-02-02T07:37:14.686Z,6.33
2018-02-02T07:39:42.417Z,5.30
2018-02-02T07:42:09.882Z,4.53
2018-02-02T07:44:37.357Z,4.90
2018-02-02T07:47:05.625Z,5.47
2018-02-02T07:49:33.103Z,5.50
2018-02-02T07:52:00.556Z,5.40
2018-02-02T07:54:28.042Z,5.20
2018-02-02T07:56:55.514Z,5.40
2018-02-02T07:59:22.994Z,4.10
2018-02-02T08:01:50.459Z,4.87
2018-02-02T08:04:17.926Z,4.87
2018-02-02T08:06:46.186Z,5.60
2018-02-02T08:09:14.431Z,4.70
2018-02-02T08:11:41.899Z,4.97
2018-02-02T08:14:09.395Z,4.83
2018-02-02T08:16:37.199Z,4.67
2018-02-02T08:19:04.667Z,4.90
2018-02-02T08:21:32.125Z,3.80
2018-02-02T08:23:59.830Z,4.30
2018-02-02T08:26:27.296Z,4.13
2018-02-02T08:28:54.814Z,3.97
2018-02-02T08:31:22.295Z,4.40
2018-02-02T08:33:49.778Z,3.73
2018-02-02T08:36:18.019Z,5.83
2018-02-02T08:38:45.490Z,5.43
2018-02-02T08:41:14.751Z,4.33
2018-02-02T08:43:42.253Z,5.17
2018-02-02T08:46:09.741Z,5.70
2018-02-02T08:48:37.228Z,4.20
2018-02-02T08:51:04.688Z,4.93
2018-02-02T08:53:32.178Z,5.07
2018-02-02T08:55:59.735Z,3.70
2018-02-02T08:58:29.256Z,4.87
2018-02-02T09:01:04.068Z,4.77
2018-02-02T09:03:31.527Z,4.80
2018-02-02T09:05:58.983Z,4.20
2018-02-02T09:08:26.450Z,4.07
2018-02-02T09:10:53.923Z,4.80
2018-02-02T09:13:21.415Z,5.40
2018-02-02T09:15:51.831Z,5.30
2018-02-02T09:18:19.278Z,4.90
2018-02-02T09:20:46.770Z,5.90
2018-02-02T09:23:14.592Z,4.80
2018-02-02T09:25:42.047Z,4.77
2018-02-02T09:28:09.526Z,4.77
2018-02-02T09:33:11.574Z,3.90
2018-02-02T09:35:39.057Z,3.47
2018-02-02T09:38:06.520Z,4.07
2018-02-02T09:40:33.988Z,4.07
2018-02-02T09:43:01.469Z,4.40
2018-02-02T09:45:28.932Z,4.73
2018-02-02T09:47:56.427Z,3.93
2018-02-02T09:50:23.935Z,5.70
2018-02-02T09:52:51.425Z,4.77
2018-02-02T09:55:20.173Z,4.13
2018-02-02T09:57:47.655Z,4.43
2018-02-02T10:00:15.307Z,4.70
2018-02-02T10:02:43.596Z,5.20
2018-02-02T10:05:11.139Z,4.80
2018-02-02T10:07:38.621Z,4.80
2018-02-02T10:10:06.116Z,4.07
2018-02-02T10:12:33.576Z,4.57
2018-02-02T10:15:01.042Z,3.60
2018-02-02T10:17:28.835Z,4.33
2018-02-02T10:19:56.299Z,4.20
2018-02-02T10:22:23.753Z,4.83
2018-02-02T10:24:51.238Z,4.87
2018-02-02T10:27:20.095Z,4.47
2018-02-02T10:29:48.211Z,4.40
2018-02-02T10:32:15.684Z,4.57
2018-02-02T10:34:43.148Z,5.00
2018-02-02T10:39:50.657Z,5.30
2018-02-02T10:42:20.324Z,5.80
2018-02-02T10:44:48.583Z,4.80
2018-02-02T10:47:16.058Z,5.57
2018-02-02T10:49:44.328Z,5.40
2018-02-02T10:52:12.566Z,6.03
2018-02-02T10:54:40.060Z,5.27
2018-02-02T10:57:08.470Z,6.53
2018-02-02T10:59:36.884Z,5.87
2018-02-02T11:02:09.981Z,6.30
2018-02-02T11:04:37.467Z,6.00
2018-02-02T11:07:04.959Z,5.30
2018-02-02T11:09:32.467Z,5.57
2018-02-02T11:11:59.971Z,5.40
2018-02-02T11:14:28.218Z,5.27
2018-02-02T11:16:56.898Z,5.77
2018-02-02T11:19:25.170Z,5.70
2018-02-02T11:21:52.843Z,6.23
2018-02-02T11:24:21.151Z,5.60
2018-02-02T11:26:48.643Z,5.27
2018-02-02T11:29:16.155Z,5.80
2018-02-02T11:31:43.677Z,6.83
2018-02-02T11:34:11.185Z,5.67
2018-02-02T11:36:39.410Z,5.50
2018-02-02T11:39:07.268Z,5.90
2018-02-02T11:41:34.779Z,7.20
2018-02-02T11:44:02.282Z,7.17
2018-02-02T11:46:29.767Z,5.90
2018-02-02T11:48:57.241Z,5.67
2018-02-02T11:51:24.764Z,6.30
2018-02-02T11:53:52.355Z,5.93
2018-02-02T11:56:20.160Z,5.77
2018-02-02T11:58:47.671Z,5.53
2018-02-02T12:01:15.536Z,6.50
2018-02-02T12:03:43.784Z,6.20
2018-02-02T12:06:11.273Z,6.00
2018-02-02T12:08:39.195Z,7.80
2018-02-02T12:11:06.667Z,5.10
2018-02-02T12:13:34.155Z,5.97
2018-02-02T12:16:02.427Z,5.50
2018-02-02T12:18:29.919Z,4.47
2018-02-02T12:20:57.404Z,5.20
2018-02-02T12:23:24.939Z,5.30
2018-02-02T12:25:58.181Z,7.87
2018-02-02T12:28:32.017Z,4.17
2018-02-02T12:31:03.764Z,7.00
2018-02-02T12:33:47.085Z,7.30
2018-02-02T12:36:15.572Z,9.30
2018-02-02T12:38:43.074Z,8.60
2018-02-02T12:41:10.539Z,6.53
2018-02-02T12:43:38.046Z,5.87
2018-02-02T12:46:05.691Z,3.93
2018-02-02T12:48:40.814Z,5.10
2018-02-02T12:51:16.835Z,4.60
2018-02-02T12:53:44.409Z,3.67
2018-02-02T12:56:11.952Z,4.40
2018-02-02T12:58:39.468Z,4.27
2018-02-02T13:01:06.982Z,5.57
2018-02-02T13:03:34.485Z,6.23
2018-02-02T13:06:02.873Z,6.13
2018-02-02T13:08:30.734Z,6.83
2018-02-02T13:10:58.964Z,5.53
2018-02-02T13:13:26.455Z,5.57
2018-02-02T13:15:55.824Z,5.83
2018-02-02T13:18:23.307Z,5.27
2018-02-02T13:20:51.559Z,4.90
2018-02-02T13:23:19.074Z,6.00
2018-02-02T13:25:46.555Z,5.40
2018-02-02T13:28:14.810Z,5.57
2018-02-02T13:30:42.566Z,4.97
2018-02-02T13:33:10.918Z,5.03
2018-02-02T13:35:39.191Z,4.93
2018-02-02T13:38:07.443Z,3.97
2018-02-02T13:40:34.926Z,5.57
2018-02-02T13:43:02.612Z,4.40
2018-02-02T13:45:30.115Z,5.23
2018-02-02T13:47:58.493Z,5.73
2018-02-02T13:50:25.959Z,5.33
2018-02-02T13:52:54.253Z,12.10
2018-02-02T13:55:21.783Z,6.73
2018-02-02T13:57:49.259Z,5.90
2018-02-02T14:00:16.801Z,4.90
2018-02-02T14:02:45.082Z,4.87
2018-02-02T14:05:12.560Z,5.13
2018-02-02T14:07:40.067Z,5.00
2018-02-02T14:10:07.620Z,4.80
2018-02-02T14:12:35.086Z,5.47
2018-02-02T14:15:02.572Z,4.70
2018-02-02T14:17:30.043Z,5.47
2018-02-02T14:19:57.504Z,5.40
2018-02-02T14:22:24.979Z,6.30
2018-02-02T14:24:53.253Z,6.13
2018-02-02T14:27:21.506Z,5.43
2018-02-02T14:29:48.977Z,6.13
2018-02-02T14:32:17.356Z,6.47
2018-02-02T14:34:45.616Z,6.50
2018-02-02T14:37:13.098Z,8.47
2018-02-02T14:39:40.571Z,7.67
2018-02-02T14:42:08.970Z,5.70
2018-02-02T14:44:36.477Z,6.83
2018-02-02T14:47:03.957Z,6.13
2018-02-02T14:49:32.739Z,5.77
2018-02-02T14:52:01.049Z,6.70
2018-02-02T14:54:28.529Z,10.90
2018-02-02T14:56:56.061Z,7.47
2018-02-02T14:59:23.549Z,5.63
2018-02-02T15:01:51.062Z,6.80
2018-02-02T15:04:18.535Z,7.70
2018-02-02T15:06:46.048Z,6.30
2018-02-02T15:09:13.544Z,6.10
2018-02-02T15:11:41.033Z,5.57
2018-02-02T15:14:08.500Z,6.23
2018-02-02T15:16:35.972Z,7.27
2018-02-02T15:19:03.443Z,6.10
2018-02-02T15:21:31.686Z,6.37
2018-02-02T15:23:59.593Z,5.97
2018-02-02T15:26:27.106Z,6.03
2018-02-02T15:28:55.374Z,5.50
2018-02-02T15:31:22.854Z,5.23
2018-02-02T15:33:50.379Z,6.73
2018-02-02T15:36:17.876Z,5.90
2018-02-02T15:38:45.347Z,5.90
2018-02-02T15:41:13.253Z,6.47
2018-02-02T15:43:41.708Z,6.03
2018-02-02T15:46:09.946Z,5.80
2018-02-02T15:48:38.244Z,5.73
2018-02-02T15:51:06.521Z,4.40
2018-02-02T15:53:34.566Z,5.70
2018-02-02T15:56:02.477Z,5.20
2018-02-02T15:58:29.949Z,7.37
2018-02-02T16:00:57.441Z,6.30
2018-02-02T16:03:24.914Z,5.30
2018-02-02T16:05:52.427Z,5.77
2018-02-02T16:08:19.952Z,7.13
2018-02-02T16:10:48.196Z,6.53
2018-02-02T16:13:15.663Z,6.93
2018-02-02T16:15:43.162Z,5.27
2018-02-02T16:18:11.473Z,6.03
2018-02-02T16:20:38.959Z,8.03
2018-02-02T16:23:06.522Z,5.17
2018-02-02T16:25:34.027Z,5.90
2018-02-02T16:28:01.522Z,5.13
2018-02-02T16:30:28.994Z,4.57
2018-02-02T16:32:56.488Z,4.20
2018-02-02T16:35:23.969Z,5.47
2018-02-02T16:37:51.446Z,6.00
2018-02-02T16:40:18.925Z,6.03
2018-02-02T16:42:47.145Z,4.60
2018-02-02T16:45:14.627Z,4.17
2018-02-02T16:47:42.112Z,3.73
2018-02-02T16:50:09.592Z,6.87
2018-02-02T16:52:37.136Z,5.47
2018-02-02T16:55:04.619Z,3.37
2018-02-02T16:57:32.095Z,3.70
2018-02-02T16:59:59.819Z,3.93
2018-02-02T17:02:27.343Z,4.63
2018-02-02T17:04:54.829Z,5.30
2018-02-02T17:07:22.308Z,6.93
2018-02-02T17:09:49.841Z,9.60
2018-02-02T17:12:18.103Z,5.10
2018-02-02T17:14:45.610Z,5.87
2018-02-02T17:17:13.056Z,5.60
2018-02-02T17:19:40.513Z,5.33
2018-02-02T17:22:08.757Z,6.10
2018-02-02T17:24:36.232Z,6.17
2018-02-02T17:27:04.532Z,7.10
2018-02-02T17:29:32.015Z,7.47
2018-02-02T17:31:59.499Z,10.50
2018-02-02T17:34:26.967Z,6.80
2018-02-02T17:36:55.059Z,6.77
2018-02-02T17:39:22.539Z,5.67
2018-02-02T17:41:50.026Z,6.43
2018-02-02T17:44:18.432Z,7.57
2018-02-02T17:46:46.649Z,6.30
2018-02-02T17:49:14.140Z,8.23
2018-02-02T17:51:41.630Z,10.13
2018-02-02T17:54:09.980Z,8.93
2018-02-02T17:56:37.467Z,8.50
2018-02-02T17:59:04.979Z,9.80
2018-02-02T18:01:35.047Z,12.00
2018-02-02T18:04:02.564Z,6.50
2018-02-02T18:06:30.950Z,9.97
2018-02-02T18:08:58.483Z,8.00
2018-02-02T18:11:25.971Z,8.90
2018-02-02T18:13:53.482Z,10.17
2018-02-02T18:16:20.968Z,7.43
2018-02-02T18:18:48.443Z,9.00
2018-02-02T18:21:15.968Z,8.23
2018-02-02T18:23:43.468Z,9.10
2018-02-02T18:26:10.943Z,8.50
2018-02-02T18:28:39.234Z,9.00
2018-02-02T18:31:06.743Z,8.23
2018-02-02T18:33:34.257Z,10.10
2018-02-02T18:36:01.759Z,12.13
2018-02-02T18:38:29.233Z,6.90
2018-02-02T18:40:56.732Z,10.83
2018-02-02T18:43:24.263Z,11.10
2018-02-02T18:45:52.486Z,6.07
2018-02-02T18:48:19.971Z,5.30
2018-02-02T18:50:47.486Z,7.53
2018-02-02T18:53:14.976Z,14.27
2018-02-02T18:55:42.459Z,5.07
2018-02-02T18:58:09.943Z,6.97
2018-02-02T19:00:37.491Z,6.10
2018-02-02T19:03:05.084Z,4.53
2018-02-02T19:05:32.757Z,5.67
2018-02-02T19:08:00.593Z,8.20
2018-02-02T19:10:29.753Z,5.63
2018-02-02T19:12:59.265Z,4.33
2018-02-02T19:15:27.036Z,4.40
2018-02-02T19:17:54.559Z,4.53
2018-02-02T19:20:22.103Z,5.30
2018-02-02T19:22:49.630Z,7.67
2018-02-02T19:25:17.153Z,6.87
2018-02-02T19:27:44.684Z,7.27
2018-02-02T19:30:12.273Z,9.50
2018-02-02T19:32:39.805Z,12.20
2018-02-02T19:35:07.354Z,8.60
2018-02-02T19:37:34.833Z,7.80
2018-02-02T19:40:04.781Z,7.30
2018-02-02T19:42:32.311Z,6.10
2018-02-02T19:45:01.326Z,9.40
2018-02-02T19:47:28.838Z,6.00
2018-02-02T19:49:56.364Z,6.73
2018-02-02T19:52:23.854Z,7.80
2018-02-02T19:54:51.361Z,6.40
2018-02-02T19:57:21.440Z,8.93
2018-02-02T19:59:48.928Z,13.70
2018-02-02T20:02:16.469Z,10.70
2018-02-02T20:04:43.957Z,14.97
2018-02-02T20:07:12.216Z,8.47
2018-02-02T20:09:39.698Z,8.30
2018-02-02T20:12:07.941Z,12.87
2018-02-02T20:14:35.439Z,12.20
2018-02-02T20:17:02.927Z,9.23
2018-02-02T20:19:30.454Z,9.50
2018-02-02T20:21:57.954Z,7.83
2018-02-02T20:24:25.444Z,8.80
2018-02-02T20:26:52.899Z,8.50
2018-02-02T20:31:52.183Z,6.43
2018-02-02T20:34:19.650Z,7.83
2018-02-02T20:36:47.124Z,7.37
2018-02-02T20:39:14.606Z,4.57
2018-02-02T20:41:42.883Z,5.73
2018-02-02T20:44:11.192Z,5.27
2018-02-02T20:46:38.697Z,5.40
2018-02-02T20:49:06.167Z,5.60
2018-02-02T20:51:34.442Z,8.20
2018-02-02T20:54:01.940Z,11.43
2018-02-02T20:56:29.404Z,5.20
2018-02-02T20:58:56.910Z,5.40
2018-02-02T21:01:24.430Z,4.90
2018-02-02T21:03:51.933Z,6.43
2018-02-02T21:06:20.194Z,5.93
2018-02-02T21:08:47.684Z,6.03
2018-02-02T21:11:15.176Z,6.00
2018-02-02T21:13:42.638Z,6.27
2018-02-02T21:16:10.149Z,6.33
2018-02-02T21:18:37.636Z,6.13
2018-02-02T21:21:05.145Z,6.90
2018-02-02T21:23:33.512Z,7.33
2018-02-02T21:26:00.983Z,11.07
2018-02-02T21:28:29.254Z,11.33
2018-02-02T21:30:56.749Z,6.63
2018-02-02T21:33:24.291Z,6.90
2018-02-02T21:35:51.773Z,7.87
2018-02-02T21:38:19.249Z,8.70
2018-02-02T21:40:46.713Z,7.00
2018-02-02T21:43:14.201Z,8.17
2018-02-02T21:45:42.449Z,11.83
2018-02-02T21:48:10.714Z,11.07
2018-02-02T21:50:39.041Z,12.23
2018-02-02T21:53:07.313Z,7.73
2018-02-02T21:55:35.551Z,9.53
2018-02-02T21:58:03.037Z,11.67
2018-02-02T22:00:30.565Z,14.20
2018-02-02T22:02:58.053Z,10.40
2018-02-02T22:05:26.304Z,9.90
2018-02-02T22:07:54.591Z,12.77
2018-02-02T22:10:22.057Z,9.30
2018-02-02T22:12:49.522Z,10.10
2018-02-02T22:15:17.079Z,11.43
2018-02-02T22:17:44.724Z,9.20
2018-02-02T22:20:13.072Z,11.40
2018-02-02T22:22:40.583Z,8.30
2018-02-02T22:25:08.195Z,9.30
2018-02-02T22:27:35.851Z,9.27
2018-02-02T22:30:03.386Z,10.47
2018-02-02T22:32:30.922Z,11.30
2018-02-02T22:34:58.381Z,11.40
2018-02-02T22:37:25.904Z,10.30
2018-02-02T22:39:53.387Z,9.67
2018-02-02T22:42:22.649Z,12.40
2018-02-02T22:44:50.121Z,7.97
2018-02-02T22:47:17.851Z,10.53
2018-02-02T22:49:45.340Z,11.60
2018-02-02T22:52:12.830Z,11.50
2018-02-02T22:54:40.351Z,11.10
2018-02-02T22:57:07.833Z,10.77
2018-02-02T22:59:35.349Z,8.63
2018-02-02T23:02:02.880Z,10.40
2018-02-02T23:04:30.440Z,9.97
2018-02-02T23:06:57.957Z,10.40
2018-02-02T23:09:25.461Z,11.20
2018-02-02T23:11:52.941Z,10.37
2018-02-02T23:14:20.429Z,9.20
2018-02-02T23:16:47.899Z,9.03
2018-02-02T23:19:15.374Z,8.33
2018-02-02T23:21:43.633Z,10.73
2018-02-02T23:24:11.109Z,10.70
2018-02-02T23:26:38.590Z,10.57
2018-02-02T23:29:06.095Z,9.60
2018-02-02T23:31:33.565Z,10.30
2018-02-02T23:34:01.343Z,9.90
2018-02-02T23:36:28.932Z,10.57
2018-02-02T23:38:56.469Z,9.83
2018-02-02T23:41:23.991Z,9.60
2018-02-02T23:43:51.564Z,10.80
2018-02-02T23:46:19.137Z,9.83
2018-02-02T23:48:46.806Z,10.13
2018-02-02T23:51:14.842Z,9.97
2018-02-02T23:53:42.466Z,12.00
2018-02-02T23:56:10.068Z,11.03
2018-02-02T23:58:37.658Z,11.87
